Edmonton / Gartner Airport

CFQ7 · Alberta, Canadá

METAR pasados CFQ7 · Edmonton / Gartner Airport

A continuación puedes ver los METAR de los últimos días. Selecciona un año para ver los METAR más antiguos, desde el año 2007 en adelante.

17 de julio de 2024

Hora Código Tiempo Temp. Visibilidad Cielo nuboso Viento METAR/SPECI
23:00
V
21 °C 20 mi 25.000 ft 120° 120° 7 kt METAR CYEG 180500Z 12007KT 20SM FEW075CB SCT150 BKN250 21/16 A2999 RMK CB1AC3CI2 CB TR CB SH DIST SE MOV E SLP148 DENSITY ALT 3600FT
22:00
V
22 °C 20 mi 25.000 ft 120° 120° 7 kt METAR CYEG 180400Z 12007KT 20SM FEW075CB SCT150 BKN250 22/15 A2999 RMK CB1AC2CI2 CB DIST SE MOV SLW E SLP149 DENSITY ALT 3700FT
21:00
V
27 °C 20 mi 25.000 ft 120° 120° 9 kt METAR CYEG 180300Z 12009KT 20SM FEW075CB SCT180 BKN250 27/16 A2998 RMK CB1AC2CI3 CB SH DIST SE MOV SLW E SLP144 DENSITY ALT 4200FT
20:00
V
27 °C 20 mi 25.000 ft 130° 130° 8 kt METAR CYEG 180200Z 13008KT 20SM FEW075CB SCT180 BKN250 27/17 A2998 RMK CB2AC1CI2 CB SH DIST NE MOV SLW E SLP145 DENSITY ALT 4300FT
19:00
V
27 °C 20 mi 25.000 ft 130° 130° 8 kt METAR CYEG 180100Z 13008KT 20SM FEW075CB SCT180 BKN250 27/18 A2999 RMK CB2AC1CI2 CB SH DIST NE MOV SLW E SLP149 DENSITY ALT 4200FT
18:00
V
29 °C 20 mi - 140° 140° 8 kt METAR CYEG 180000Z 14008KT 20SM FEW075CB SCT250 29/18 A2999 RMK CB2CI1 CB SH DIST NW-NE MOV SLW E SLP154 DENSITY ALT 4400FT
17:00
V
30 °C 20 mi - 140° 140° 6 kt METAR CYEG 172300Z 14006KT 20SM FEW060CB FEW250 30/19 A2999 RMK CB2CI1 CI TR CB DIST NW-NE MOV E SLP151 DENSITY ALT 4600FT
16:00
V
31 °C 20 mi - 130° 130° 6 kt METAR CYEG 172200Z 13006KT 090V180 20SM FEW049TCU FEW250 31/20 A3002 RMK TCU2CI1 CI TR SLP155 DENSITY ALT 4600FT
15:00
V
31 °C 20 mi - 180° 180° 7 kt METAR CYEG 172100Z 18007KT 20SM FEW049CB FEW090 31/18 A3003 RMK CB1ACC1 ACC TR CB DIST NE MOV NE SLP162 DENSITY ALT 4600FT
14:00
V
30 °C 20 mi - 160° 160° 6 kt METAR CYEG 172000Z 16006KT 110V180 20SM FEW047TCU FEW090 FEW250 30/19 A3004 RMK TCU1ACC1CI1 ACC TR CI TR TCU W-NE SLP166 DENSITY ALT 4500FT
13:00
V
29 °C 20 mi - 140° 140° 10 kt METAR CYEG 171900Z 14010KT 20SM FEW047 FEW090 FEW140 29/18 A3005 RMK CU1ACC1AC1 CU TR ACC TR SLP170 DENSITY ALT 4400FT
12:00
V
29 °C 20 mi - 140° 140° 9 kt METAR CYEG 171800Z 14009KT 20SM FEW070 FEW090CB FEW250 29/18 A3005 RMK AC1CB1CI1 CI TR CB DIST SE MOV E ACC ASOCTD SCND LYR SLP172 DENSITY ALT 4400FT
11:00
V
28 °C 20 mi - 360° 360° 0 kt METAR CYEG 171700Z 00000KT 20SM FEW090CB 28/19 A3006 RMK CB1 CB SH DIST SE MOV E ACC SE SLP172 DENSITY ALT 4300FT
10:00
V
26 °C 20 mi - 170° 170° 4 kt METAR CYEG 171600Z 17004KT 110V220 20SM FEW090 26/18 A3007 RMK ACC1 ACC TR ACC SE-S SLP176 DENSITY ALT 4000FT
09:00
V
23 °C 20 mi - Var Var 2 kt METAR CYEG 171500Z VRB02KT 20SM FEW090 23/17 A3007 RMK ACC1 ACC TR SLP175 DENSITY ALT 3800FT
08:00
V
21 °C 20 mi - 160° 160° 6 kt METAR CYEG 171400Z 16006KT 20SM FEW090 FEW250 21/17 A3006 RMK AC1CI1 AC TR CI TR ACC DIST SE AND S SLP174 DENSITY ALT 3500FT
07:00
V
18 °C 20 mi - 140° 140° 2 kt METAR CYEG 171300Z 14002KT 20SM FEW090 FEW250 18/16 A3005 RMK CU1CI1 CI TR TCU ASOCTD SLP172 DENSITY ALT 3200FT
06:00
V
15 °C 20 mi - 100° 100° 3 kt METAR CYEG 171200Z 10003KT 090V210 20SM FEW090 SCT110 SCT250 15/15 A3005 RMK CU1AC3CI1 CU TR SLP173 DENSITY ALT 2800FT
05:00
V
16 °C 20 mi 25.000 ft 010° 010° 4 kt METAR CYEG 171100Z 01004KT 240V040 20SM SCT110 BKN250 16/14 A3004 RMK AC4CI1 VIRGA SE SLP168 DENSITY ALT 3000FT
04:19
V
20 °C 20 mi 11.000 ft 220° 220° 8 kt METAR CYEG 171019Z 22008KT 160V240 20SM FEW090CB BKN110 BKN250 20/13 A3002 RMK CB2AC5CI1 CI TR CB S MOV E SLP159 DENSITY ALT 3400FT
04:00
V
22 °C 20 mi 11.000 ft 120° 120° 9 kt METAR CYEG 171000Z 12009KT 20SM TS FEW090CB BKN110 BKN250 22/11 A3002 RMK CB2AC5CI1 CI TR VIRGA PTCHS CB S MOV E OCNL LTGIC SLP155 DENSITY ALT 3700FT
03:38
V
24 °C 20 mi 11.000 ft 170° 170° 14 kt METAR CYEG 170938Z CCA 17014KT 20SM TS FEW090CB BKN110 BKN250 24/13 A3003 RMK CB2AC5CI1 CI TR CB S MOV E OCNL LTGIC SLP158 DENSITY ALT 3800FT
03:23
V
21 °C 20 mi 11.000 ft 200° 200° 14 kt METAR CYEG 170923Z 20014KT 150V220 20SM -SHRA BKN110 BKN250 21/10 A3003 RMK AC6CI1 SLP161 DENSITY ALT 3600FT
03:00
V
17 °C 20 mi 14.000 ft 150° 150° 7 kt METAR CYEG 170900Z 15007KT 20SM BKN140 BKN250 17/17 A3005 RMK AC5CI1 CI TR SLP170 DENSITY ALT 3100FT
02:00
V
16 °C 20 mi - Var Var 6 kt METAR CYEG 170800Z VRB06KT 20SM FEW140 FEW250 16/16 A3005 RMK AC2CI1 CI TR SLP175 DENSITY ALT 2900FT
01:00
V
16 °C 20 mi - 210° 210° 4 kt METAR CYEG 170700Z 21004KT 20SM FEW140 FEW250 16/16 A3004 RMK AC1CI1 SLP169 DENSITY ALT 2900FT
00:00
V
18 °C 20 mi - 150° 150° 4 kt METAR CYEG 170600Z 15004KT 20SM FEW100 FEW250 18/17 A3003 RMK AC1CI1 SLP164 DENSITY ALT 3200FT

16 de julio de 2024

Hora Código Tiempo Temp. Visibilidad Cielo nuboso Viento METAR/SPECI
23:00
V
20 °C 20 mi - 130° 130° 8 kt METAR CYEG 170500Z 13008KT 20SM FEW040CB FEW100 SCT250 20/17 A3003 RMK CB1AC1CI1 CB SH DIST E MOV SE SLP166 DENSITY ALT 3400FT
22:00
V
21 °C 20 mi - 140° 140° 8 kt METAR CYEG 170400Z 14008KT 20SM FEW040CB FEW100 SCT250 21/17 A3002 RMK CB1AC1CI2 CB SH DIST N-NE MOV E SLP163 DENSITY ALT 3500FT
21:00
V
25 °C 20 mi 25.000 ft 140° 140° 6 kt METAR CYEG 170300Z 14006KT 20SM FEW040CB BKN250 25/18 A3001 RMK CB1CI4 CB DIST SH N-NE MOV E SLP159 DENSITY ALT 4000FT
20:00
V
26 °C 20 mi 25.000 ft 170° 170° 4 kt METAR CYEG 170200Z 17004KT 20SM FEW040CB BKN250 26/19 A3000 RMK CB1CI4 CB NE AND DIST S MOV E SLP156 DENSITY ALT 4100FT
19:00
V
27 °C 20 mi - 170° 170° 7 kt METAR CYEG 170100Z 17007KT 20SM FEW040CB FEW250 27/17 A3000 RMK CB1CI1 CB NE AND DIST SW MOV E SLP156 DENSITY ALT 4300FT
18:00
V
28 °C 20 mi - 180° 180° 9 kt METAR CYEG 170000Z 18009KT 20SM FEW040CB FEW250 28/18 A3001 RMK CB2CI1 CI TR CB SH DIST S-SW MOV E CU ASOCTD SLP157 DENSITY ALT 4300FT
17:00
V
29 °C 20 mi - 170° 170° 5 kt METAR CYEG 162300Z 17005KT 150V250 20SM FEW040CB FEW250 29/19 A3001 RMK CB2CI1 CI TR CB SH DIST S MOV E CU ASOCTD SLP157 DENSITY ALT 4500FT
16:00
V
29 °C 20 mi - 360° 360° 0 kt METAR CYEG 162200Z 00000KT 20SM FEW040CB FEW250 29/18 A3002 RMK CB1CI1 CI TR CB SH S-SW MOV E CU ASOCTD SLP162 DENSITY ALT 4400FT
15:00
V
28 °C 20 mi - 010° 010° 4 kt METAR CYEG 162100Z 01004KT 300V040 20SM FEW040 FEW090 FEW250 28/18 A3003 RMK CU1AC1CI1 CU TR AC TR CI TR SLP166 DENSITY ALT 4300FT
14:00
V
26 °C 20 mi 9.000 ft 360° 360° 0 kt METAR CYEG 162000Z 00000KT 20SM BKN090 BKN120 BKN250 26/18 A3004 RMK ACC5AC1CI1 CI TR VIRGA OHD SLP170 DENSITY ALT 4100FT
13:00
V
26 °C 20 mi - Var Var 3 kt METAR CYEG 161900Z VRB03KT 20SM FEW100 SCT120 SCT140 SCT250 26/17 A3005 RMK ACC2AC1AC1CI1 CI TR SLP171 DENSITY ALT 4100FT
12:00
V
25 °C 20 mi - Var Var 3 kt METAR CYEG 161800Z VRB03KT 20SM FEW050CB FEW100 SCT140 SCT250 25/18 A3005 RMK CB1ACC1AC1CI1 CI TR CB SH SE MOV E SLP171 DENSITY ALT 4000FT
11:00
V
24 °C 20 mi 14.000 ft Var Var 2 kt METAR CYEG 161700Z VRB02KT 20SM FEW050CB SCT100 BKN140 BKN250 24/15 A3005 RMK CB2ACC2AC2CI1 CI TR CB SH NE AND S-SW MOV E SLP172 DENSITY ALT 3800FT
10:00
V
22 °C 20 mi 10.000 ft 290° 290° 5 kt METAR CYEG 161600Z 29005KT 20SM FEW050CB SCT090 BKN100 BKN140 22/15 A3004 RMK CB2ACC2AC1AC1 CB SH N-NE AND SW-W MOV E SLP170 DENSITY ALT 3600FT
09:00
V
20 °C 20 mi 11.000 ft 240° 240° 3 kt METAR CYEG 161500Z 24003KT 20SM FEW050CB SCT090 BKN110 BKN150 20/16 A3003 RMK CB2ACC1AC2AC2 CB SH N AND W QUADS MOV E SLP166 DENSITY ALT 3500FT
08:00
V
19 °C 20 mi 11.000 ft 240° 240° 3 kt METAR CYEG 161400Z 24003KT 20SM SCT090 BKN110 BKN150 19/16 A3002 RMK ACC3AC2AC2 ACC SH SW AND DIST NW QUAD SLP165 DENSITY ALT 3300FT
07:00
V
18 °C 20 mi 12.000 ft 250° 250° 5 kt METAR CYEG 161300Z 25005KT 20SM SCT090 BKN120 BKN170 18/16 A3002 RMK ACC3AC2AC2 VIRGA W SLP164 DENSITY ALT 3200FT
06:00
V
17 °C 20 mi 11.000 ft 220° 220° 5 kt METAR CYEG 161200Z 22005KT 20SM FEW090 BKN110 BKN160 17/16 A3001 RMK AC2AC3AC2 SLP162 DENSITY ALT 3100FT
05:00
V
16 °C 20 mi 18.000 ft 280° 280° 6 kt METAR CYEG 161100Z 28006KT 20SM SCT090 BKN180 BKN230 16/16 A3000 RMK AC3AC3CI1 SLP158 DENSITY ALT 3000FT
04:00
V
15 °C 20 mi 14.000 ft 280° 280° 2 kt METAR CYEG 161000Z 28002KT 20SM BKN140 BKN170 15/15 A2998 RMK AC5AC2 SLP150 DENSITY ALT 3000FT
03:00
V
17 °C 20 mi 13.000 ft 150° 150° 3 kt METAR CYEG 160900Z 15003KT 20SM BKN130 BKN170 17/15 A2996 RMK AC5AC2 SLP141 DENSITY ALT 3200FT
02:00
V
18 °C 20 mi 18.000 ft 200° 200° 5 kt METAR CYEG 160800Z 20005KT 20SM FEW080 SCT120 BKN180 BKN250 18/16 A2996 RMK AC1AC2AC4CI1 CI TR SLP142 DENSITY ALT 3200FT
01:00
V
18 °C 20 mi 12.000 ft 200° 200° 6 kt METAR CYEG 160700Z 20006KT 20SM SCT080 BKN120 BKN250 18/18 A2997 RMK AC3AC3CI1 CI TR SLP144 DENSITY ALT 3300FT
00:00
V
18 °C 20 mi 10.000 ft 190° 190° 5 kt METAR CYEG 160600Z 19005KT 20SM BKN100 BKN130 BKN250 18/18 A2995 RMK AC5AC2CI1 CI TR VIRGA OHD SLP138 DENSITY ALT 3300FT

15 de julio de 2024

Hora Código Tiempo Temp. Visibilidad Cielo nuboso Viento METAR/SPECI
23:00
V
19 °C 20 mi 13.000 ft 180° 180° 5 kt METAR CYEG 160500Z 18005KT 20SM BKN130 BKN170 BKN220 19/18 A2993 RMK AC6AC1CI1 CI TR SLP134 DENSITY ALT 3400FT
22:00
V
19 °C 20 mi 17.000 ft 200° 200° 7 kt METAR CYEG 160400Z 20007KT 20SM FEW120 BKN170 BKN220 19/18 A2993 RMK AC2AC5CI1 CI TR SLP136 DENSITY ALT 3400FT
21:00
V
21 °C 20 mi 17.000 ft 190° 190° 3 kt METAR CYEG 160300Z 19003KT 20SM FEW050 FEW120 BKN170 BKN220 21/18 A2991 RMK CU1AC2AC5CI1 CU TR CI TR SLP128 DENSITY ALT 3700FT
20:00
V
23 °C 20 mi 17.000 ft 180° 180° 2 kt METAR CYEG 160200Z 18002KT 20SM FEW050 SCT120 BKN170 BKN220 23/19 A2990 RMK CU1AC3AC4CI1 CU TR CI TR SLP127 DENSITY ALT 3900FT
19:00
V
24 °C 20 mi 17.000 ft 180° 180° 3 kt METAR CYEG 160100Z 18003KT 20SM FEW050 SCT120 BKN170 BKN220 24/19 A2991 RMK CU1AC3AC3CI1 CU TR SLP128 DENSITY ALT 4000FT
18:16
V
25 °C 20 mi 11.000 ft 180° 180° 2 kt METAR CYEG 160016Z CCA 18002KT 20SM FEW050 BKN110 BKN140 BKN220 25/17 A2991 RMK CU1AC6AC1CI1 CU TR CI TR PCPN SE QUAD SLP131 DENSITY ALT 4100FT
18:00
V
25 °C 20 mi 11.000 ft 200° 200° 3 kt METAR CYEG 160000Z 20003KT 20SM -RA FEW050 BKN110 BKN140 BKN220 25/15 A2991 RMK CU1AC5AC2CI1 CU TR CI TR SLP131 DENSITY ALT 4100FT
17:54
V
26 °C 20 mi 11.000 ft Var Var 2 kt METAR CYEG 152354Z VRB02KT 20SM -RA FEW050 BKN110 BKN150 BKN220 26/16 A2991 RMK CU1AC5AC2CI1 CU TR CI TR SLP131 DENSITY ALT 4200FT
17:00
V
25 °C 20 mi 12.000 ft 210° 210° 2 kt METAR CYEG 152300Z 21002KT 20SM FEW050 BKN120 BKN160 25/15 A2991 RMK CU1AC5AC2 CU TR SLP131 DENSITY ALT 4100FT
16:00
V
26 °C 20 mi 14.000 ft 360° 360° 3 kt METAR CYEG 152200Z 36003KT 20SM FEW050 SCT110 BKN140 BKN220 26/13 A2991 RMK CU1AC3AC4CI1 CU TR CI TR SLP130 DENSITY ALT 4200FT
15:00
V
26 °C 20 mi 12.000 ft 360° 360° 7 kt METAR CYEG 152100Z 36007KT 20SM FEW050 SCT090 BKN120 BKN220 26/14 A2992 RMK CU1AC3AC4CI1 CU TR CI TR SLP132 DENSITY ALT 4200FT
14:00
V
25 °C 20 mi 12.000 ft 070° 070° 5 kt METAR CYEG 152000Z 07005KT 350V090 20SM FEW040 SCT090 BKN120 BKN220 25/15 A2992 RMK CU1AC2AC4CI1 CI TR SLP134 DENSITY ALT 4100FT
13:00
V
25 °C 20 mi 9.000 ft 360° 360° 6 kt METAR CYEG 151900Z 36006KT 290V030 20SM FEW035 BKN090 BKN120 BKN220 25/17 A2992 RMK CU1AC4AC2CI1 CI TR SLP135 DENSITY ALT 4100FT
12:00
V
24 °C 20 mi 9.500 ft 220° 220° 5 kt METAR CYEG 151800Z 22005KT 200V260 20SM FEW030 BKN095 BKN150 BKN220 24/16 A2992 RMK CU1AC6AC1CI1 CU TR CI TR SLP135 DENSITY ALT 4000FT
11:00
V
22 °C 20 mi 10.000 ft 240° 240° 6 kt METAR CYEG 151700Z 24006KT 210V320 20SM BKN100 BKN140 BKN220 22/16 A2993 RMK AC5AC2CI1 CI TR SLP138 DENSITY ALT 3700FT
10:00
V
18 °C 20 mi 18.000 ft 220° 220° 4 kt METAR CYEG 151600Z 22004KT 20SM SCT095 SCT120 BKN180 18/15 A2993 RMK AC3AC1AC3 VIRGA PTCHS SLP139 DENSITY ALT 3300FT
09:34
V
17 °C 20 mi 9.900 ft 360° 360° 0 kt METAR CYEG 151534Z 00000KT 20SM BKN099 BKN110 BKN140 17/14 A2993 RMK AC5AC1AC1 PCPN SE VIRGA PTCHS ALQDS SLP142 DENSITY ALT 3200FT
09:12
V
17 °C 20 mi 9.500 ft Var Var 2 kt METAR CYEG 151512Z VRB02KT 20SM -RA BKN095 BKN110 17/14 A2994 RMK AC6AC2 SLP142 DENSITY ALT 3100FT
09:00
V
16 °C 20 mi 9.500 ft 360° 360° 0 kt METAR CYEG 151500Z 00000KT 20SM BKN095 BKN110 BKN140 16/14 A2994 RMK AC5AC2AC1 AC TR VIRGA W-NW SLP142 DENSITY ALT 3100FT
08:00
V
15 °C 20 mi 9.700 ft 360° 360° 0 kt METAR CYEG 151400Z 00000KT 20SM BKN097 BKN110 BKN140 15/14 A2994 RMK AC5AC1AC1 VIRGA PTCHS ALQDS SLP140 DENSITY ALT 2900FT
07:00
V
13 °C 20 mi 11.000 ft 140° 140° 3 kt METAR CYEG 151300Z 14003KT 20SM SCT092 BKN110 BKN140 13/13 A2993 RMK AC4AC2AC1 VIRGA OHD SLP139 DENSITY ALT 2700FT
06:00
V
11 °C 20 mi 12.000 ft 150° 150° 5 kt METAR CYEG 151200Z 15005KT 20SM BKN120 BKN150 BKN250 11/11 A2993 RMK AC5AC2CI1 CI TR SLP141
05:00
V
12 °C 20 mi 24.000 ft 160° 160° 3 kt METAR CYEG 151100Z 16003KT 20SM FEW120 BKN240 12/10 A2994 RMK AC2CI5 SLP143 DENSITY ALT 2600FT
04:00
V
12 °C 20 mi 22.000 ft 150° 150° 6 kt METAR CYEG 151000Z 15006KT 20SM FEW120 BKN220 12/11 A2994 RMK AC1CI6 SLP142 DENSITY ALT 2600FT
03:00
V
12 °C 20 mi 23.000 ft 150° 150° 6 kt METAR CYEG 150900Z 15006KT 20SM BKN230 12/11 A2996 RMK CI6 SLP149
Cambiar esta información